Time;durP1;ratioP1;P1;durP2;ratioP2;P2;SDS_P1;SDS_P2;PMS_P1;PMS_P2;Temp;Humidity;BMP_temperature;BMP_pressure;BME280_temperature;BME280_humidity;BME280_pressure;Samples;Min_cycle;Max_cycle;Signal;HPM_P1;HPM_P2
2023/07/05 00:01:45;;;;;;;9.18;4.28;;;;;;;;;;4909791;29;20593;-80
2023/07/05 00:04:11;;;;;;;6.85;4.00;;;;;;;;;;4911113;29;20058;-81
2023/07/05 00:06:36;;;;;;;9.38;4.43;;;;;;;;;;4910144;29;20118;-80
2023/07/05 00:09:02;;;;;;;8.05;3.90;;;;;;;;;;4909014;29;20036;-81
2023/07/05 00:11:28;;;;;;;7.88;4.40;;;;;;;;;;4926407;29;20040;-80
2023/07/05 00:13:53;;;;;;;8.63;4.40;;;;;;;;;;4910545;29;20408;-79
2023/07/05 00:16:20;;;;;;;8.52;4.82;;;;;;;;;;4909546;29;20036;-80
2023/07/05 00:18:45;;;;;;;7.55;3.92;;;;;;;;;;4910706;29;20488;-80
2023/07/05 00:21:11;;;;;;;9.75;4.55;;;;;;;;;;4904100;29;20046;-80
2023/07/05 00:23:38;;;;;;;8.30;4.38;;;;;;;;;;4917818;29;20040;-80
2023/07/05 00:26:05;;;;;;;7.00;4.20;;;;;;;;;;4926449;29;20040;-80
2023/07/05 00:28:34;;;;;;;7.30;4.00;;;;;;;;;;4911055;29;20384;-80
2023/07/05 00:31:00;;;;;;;8.50;4.25;;;;;;;;;;4921266;29;20035;-80
2023/07/05 00:33:28;;;;;;;9.10;4.18;;;;;;;;;;4910431;29;20403;-80
2023/07/05 00:35:55;;;;;;;8.05;4.50;;;;;;;;;;4909482;29;20044;-80
2023/07/05 00:38:22;;;;;;;9.07;4.28;;;;;;;;;;4926759;29;20610;-80
2023/07/05 00:40:49;;;;;;;8.73;4.32;;;;;;;;;;4911069;29;20043;-81
2023/07/05 00:43:15;;;;;;;10.68;4.43;;;;;;;;;;4909937;29;20781;-80
2023/07/05 00:45:59;;;;;;;6.93;4.32;;;;;;;;;;4897392;29;20055;-80
2023/07/05 00:48:37;;;;;;;6.47;4.35;;;;;;;;;;4926988;29;20468;-80
2023/07/05 00:51:11;;;;;;;9.65;4.60;;;;;;;;;;4899867;29;20039;-80
2023/07/05 00:53:37;;;;;;;9.82;4.25;;;;;;;;;;4924123;29;20114;-81
2023/07/05 00:56:23;;;;;;;8.95;4.47;;;;;;;;;;4903646;29;20658;-80
2023/07/05 00:58:50;;;;;;;8.18;4.68;;;;;;;;;;4929786;29;20090;-81
2023/07/05 01:01:16;;;;;;;9.02;4.53;;;;;;;;;;4926136;29;20044;-80
2023/07/05 01:03:43;;;;;;;8.57;4.28;;;;;;;;;;4907411;29;20043;-80
2023/07/05 01:06:12;;;;;;;11.80;4.97;;;;;;;;;;4919987;29;20039;-81
2023/07/05 01:08:38;;;;;;;10.02;4.32;;;;;;;;;;4909575;29;20036;-82
2023/07/05 01:11:22;;;;;;;8.73;4.50;;;;;;;;;;4902376;29;20039;-80
2023/07/05 01:14:06;;;;;;;9.65;4.50;;;;;;;;;;4941331;29;20062;-80
2023/07/05 01:16:42;;;;;;;8.25;4.88;;;;;;;;;;4910637;29;20044;-81
2023/07/05 01:19:35;;;;;;;7.82;4.22;;;;;;;;;;4918350;29;20067;-79
2023/07/05 01:22:08;;;;;;;11.07;4.47;;;;;;;;;;4907141;29;20047;-80
2023/07/05 01:25:07;;;;;;;8.48;4.72;;;;;;;;;;4929312;29;20496;-81
2023/07/05 01:27:44;;;;;;;6.97;4.38;;;;;;;;;;4909575;29;20035;-80
2023/07/05 01:30:28;;;;;;;7.43;4.55;;;;;;;;;;4893807;29;20685;-81
2023/07/05 01:33:00;;;;;;;8.23;4.10;;;;;;;;;;4927563;29;20580;-81
2023/07/05 01:35:47;;;;;;;9.85;4.47;;;;;;;;;;4893686;29;20046;-80
2023/07/05 01:38:13;;;;;;;8.68;4.35;;;;;;;;;;4902897;29;20508;-79
2023/07/05 01:40:38;;;;;;;7.18;4.20;;;;;;;;;;4898284;29;20050;-79
2023/07/05 01:43:14;;;;;;;9.65;4.43;;;;;;;;;;4926822;29;20039;-79
2023/07/05 01:46:06;;;;;;;8.10;4.40;;;;;;;;;;4907590;29;20085;-79
2023/07/05 01:48:41;;;;;;;8.80;3.80;;;;;;;;;;4885368;29;20614;-79
2023/07/05 01:51:11;;;;;;;11.23;4.60;;;;;;;;;;4910565;29;20039;-79
2023/07/05 01:53:51;;;;;;;9.40;4.22;;;;;;;;;;4927173;29;20053;-78
2023/07/05 01:56:24;;;;;;;6.93;4.43;;;;;;;;;;4896803;29;20551;-79
2023/07/05 01:58:52;;;;;;;9.50;4.32;;;;;;;;;;4911675;29;20562;-78
2023/07/05 02:01:21;;;;;;;7.30;4.25;;;;;;;;;;4894686;29;20039;-79
2023/07/05 02:03:49;;;;;;;8.57;4.53;;;;;;;;;;4912306;29;20062;-79
2023/07/05 02:06:16;;;;;;;8.50;3.97;;;;;;;;;;4896727;29;20663;-79
2023/07/05 02:08:43;;;;;;;7.88;3.75;;;;;;;;;;4912491;29;20848;-79
2023/07/05 02:11:09;;;;;;;7.70;4.20;;;;;;;;;;4911476;29;20036;-80
2023/07/05 02:13:34;;;;;;;6.47;3.85;;;;;;;;;;4914210;29;20503;-80
2023/07/05 02:16:03;;;;;;;11.40;4.07;;;;;;;;;;4913463;29;20039;-78
2023/07/05 02:18:29;;;;;;;8.43;3.90;;;;;;;;;;4914152;29;20527;-80
2023/07/05 02:20:56;;;;;;;5.88;3.53;;;;;;;;;;4906270;29;20047;-79
2023/07/05 02:23:22;;;;;;;9.02;3.90;;;;;;;;;;4938563;29;21610;-80
2023/07/05 02:25:49;;;;;;;9.52;4.07;;;;;;;;;;4911691;29;20042;-80
2023/07/05 02:28:15;;;;;;;8.25;3.92;;;;;;;;;;4924375;29;20547;-80
2023/07/05 02:30:41;;;;;;;8.18;3.90;;;;;;;;;;4912285;29;20040;-80
2023/07/05 02:33:06;;;;;;;7.80;3.75;;;;;;;;;;4903109;29;20048;-80
2023/07/05 02:35:36;;;;;;;9.85;3.90;;;;;;;;;;4911920;29;20484;-82
2023/07/05 02:38:02;;;;;;;9.98;4.15;;;;;;;;;;4920075;29;20365;-80
2023/07/05 02:40:28;;;;;;;10.45;4.40;;;;;;;;;;4912886;29;20047;-80
2023/07/05 02:42:53;;;;;;;6.47;3.78;;;;;;;;;;4927703;29;20456;-80
2023/07/05 02:45:19;;;;;;;6.80;3.63;;;;;;;;;;4927799;29;20043;-81
2023/07/05 02:47:44;;;;;;;8.48;3.70;;;;;;;;;;4904998;28;20488;-79
2023/07/05 02:50:10;;;;;;;8.60;4.05;;;;;;;;;;4926857;29;20459;-80
2023/07/05 02:52:35;;;;;;;6.78;3.85;;;;;;;;;;4911239;29;20031;-80
2023/07/05 02:55:01;;;;;;;7.47;3.80;;;;;;;;;;4912834;29;20118;-80
2023/07/05 02:57:26;;;;;;;6.38;3.47;;;;;;;;;;4927150;29;20043;-79
2023/07/05 02:59:52;;;;;;;10.05;4.20;;;;;;;;;;4928195;29;20044;-81
2023/07/05 03:02:17;;;;;;;10.07;3.80;;;;;;;;;;4925785;29;20072;-81
2023/07/05 03:04:59;;;;;;;9.88;3.90;;;;;;;;;;4916492;29;20376;-79
2023/07/05 03:07:24;;;;;;;10.02;4.10;;;;;;;;;;4927057;28;20028;-80
2023/07/05 03:09:51;;;;;;;7.10;3.75;;;;;;;;;;4928607;29;20032;-80
2023/07/05 03:12:17;;;;;;;7.70;4.27;;;;;;;;;;4891696;29;20059;-79
2023/07/05 03:14:43;;;;;;;7.78;3.92;;;;;;;;;;4898503;29;20295;-80
2023/07/05 03:17:14;;;;;;;7.47;3.85;;;;;;;;;;4926324;29;20039;-80
2023/07/05 03:19:40;;;;;;;8.10;4.22;;;;;;;;;;4927709;29;20138;-79
2023/07/05 03:22:05;;;;;;;7.30;3.95;;;;;;;;;;4927073;29;20383;-80
2023/07/05 03:24:31;;;;;;;7.60;3.88;;;;;;;;;;4912068;29;20488;-80
2023/07/05 03:26:56;;;;;;;9.35;3.92;;;;;;;;;;4928158;29;20040;-80
2023/07/05 03:29:24;;;;;;;7.65;4.30;;;;;;;;;;4912717;29;20043;-79
2023/07/05 03:31:50;;;;;;;7.32;3.70;;;;;;;;;;4905031;29;20054;-80
2023/07/05 03:34:16;;;;;;;7.75;3.60;;;;;;;;;;4938602;29;20048;-81
2023/07/05 03:36:41;;;;;;;7.68;3.88;;;;;;;;;;4916643;29;20039;-81
2023/07/05 03:39:07;;;;;;;9.32;3.55;;;;;;;;;;4910849;29;20042;-81
2023/07/05 03:41:32;;;;;;;8.75;4.10;;;;;;;;;;4904651;29;20539;-79
2023/07/05 03:44:00;;;;;;;7.50;4.03;;;;;;;;;;4899015;29;20043;-80
2023/07/05 03:46:34;;;;;;;5.65;3.40;;;;;;;;;;4916638;29;20381;-80
2023/07/05 03:49:00;;;;;;;6.25;3.30;;;;;;;;;;4942057;29;20043;-81
2023/07/05 03:51:25;;;;;;;7.03;3.40;;;;;;;;;;4924186;29;20065;-82
2023/07/05 03:53:56;;;;;;;7.97;4.07;;;;;;;;;;4924001;29;20492;-81
2023/07/05 03:56:23;;;;;;;6.50;3.60;;;;;;;;;;4917743;29;20039;-81
2023/07/05 03:58:49;;;;;;;7.03;3.63;;;;;;;;;;4898442;29;20087;-81
2023/07/05 04:01:18;;;;;;;7.13;3.75;;;;;;;;;;4905547;29;20299;-81
2023/07/05 04:03:48;;;;;;;7.15;3.67;;;;;;;;;;4922921;29;20115;-81
2023/07/05 04:06:14;;;;;;;8.70;3.75;;;;;;;;;;4914493;29;20141;-81
2023/07/05 04:08:40;;;;;;;8.98;3.90;;;;;;;;;;4910247;29;20040;-81
2023/07/05 04:11:11;;;;;;;7.35;3.58;;;;;;;;;;4904654;29;20583;-80
2023/07/05 04:13:37;;;;;;;7.05;3.20;;;;;;;;;;4925488;29;20047;-81
2023/07/05 04:16:08;;;;;;;8.85;3.55;;;;;;;;;;4909330;29;20031;-82
2023/07/05 04:18:34;;;;;;;7.97;3.60;;;;;;;;;;4934331;29;20036;-80
2023/07/05 04:21:00;;;;;;;6.00;3.13;;;;;;;;;;4895113;29;20047;-81
2023/07/05 04:23:26;;;;;;;8.23;3.80;;;;;;;;;;4909876;29;20032;-80
2023/07/05 04:26:03;;;;;;;6.50;3.53;;;;;;;;;;4909260;29;20456;-80
2023/07/05 04:28:29;;;;;;;8.50;4.05;;;;;;;;;;4917684;29;20032;-81
2023/07/05 04:30:55;;;;;;;7.35;3.50;;;;;;;;;;4926168;29;20584;-81
2023/07/05 04:33:21;;;;;;;10.50;3.25;;;;;;;;;;4925289;29;20131;-80
2023/07/05 04:35:49;;;;;;;7.40;3.58;;;;;;;;;;4925158;29;20143;-81
2023/07/05 04:38:14;;;;;;;6.18;3.53;;;;;;;;;;4925803;29;20385;-80
2023/07/05 04:40:40;;;;;;;7.78;3.78;;;;;;;;;;4911796;29;20036;-80
2023/07/05 04:43:06;;;;;;;8.63;3.50;;;;;;;;;;4913585;29;20051;-79
2023/07/05 04:45:31;;;;;;;5.85;3.30;;;;;;;;;;4902455;29;20419;-80
2023/07/05 04:47:56;;;;;;;6.85;3.42;;;;;;;;;;4915553;29;20495;-80
2023/07/05 04:50:28;;;;;;;7.07;3.65;;;;;;;;;;4941610;28;20075;-81
2023/07/05 04:52:54;;;;;;;7.82;3.47;;;;;;;;;;4904073;29;20441;-80
2023/07/05 04:55:19;;;;;;;7.55;3.60;;;;;;;;;;4906086;29;20052;-81
2023/07/05 04:57:45;;;;;;;7.57;3.30;;;;;;;;;;4926476;29;20813;-79
2023/07/05 05:00:11;;;;;;;8.05;3.30;;;;;;;;;;4941631;29;20039;-80
2023/07/05 05:02:37;;;;;;;10.32;3.60;;;;;;;;;;4926388;29;20040;-81
2023/07/05 05:05:03;;;;;;;6.88;3.60;;;;;;;;;;4926833;29;20075;-81
2023/07/05 05:07:31;;;;;;;8.52;3.78;;;;;;;;;;4921951;29;20063;-81
2023/07/05 05:09:59;;;;;;;7.70;3.90;;;;;;;;;;4911371;29;20131;-81
2023/07/05 05:12:24;;;;;;;9.93;3.60;;;;;;;;;;4915140;29;20542;-80
2023/07/05 05:14:49;;;;;;;6.22;3.30;;;;;;;;;;4926535;29;20055;-80
2023/07/05 05:17:15;;;;;;;6.07;3.13;;;;;;;;;;4918262;29;20044;-79
2023/07/05 05:19:41;;;;;;;9.77;3.58;;;;;;;;;;4910577;29;20036;-80
2023/07/05 05:22:06;;;;;;;10.55;3.67;;;;;;;;;;4908629;29;20046;-81
2023/07/05 05:24:35;;;;;;;11.05;4.07;;;;;;;;;;4912130;29;20645;-80
2023/07/05 05:27:00;;;;;;;7.97;3.58;;;;;;;;;;4896693;29;20058;-80
2023/07/05 05:29:26;;;;;;;9.13;3.50;;;;;;;;;;4917480;29;20028;-81
2023/07/05 05:31:51;;;;;;;9.63;4.13;;;;;;;;;;4911817;29;20028;-80
2023/07/05 05:34:17;;;;;;;8.70;3.30;;;;;;;;;;4925045;29;21020;-81
2023/07/05 05:36:42;;;;;;;9.82;3.55;;;;;;;;;;4926185;29;20059;-81
2023/07/05 05:39:08;;;;;;;10.75;3.75;;;;;;;;;;4910824;29;20039;-82
2023/07/05 05:41:33;;;;;;;7.28;3.30;;;;;;;;;;4909352;29;20035;-80
2023/07/05 05:43:59;;;;;;;10.45;3.33;;;;;;;;;;4932910;29;20047;-81
2023/07/05 05:46:24;;;;;;;7.10;3.55;;;;;;;;;;4915676;29;21010;-79
2023/07/05 05:48:50;;;;;;;6.88;3.67;;;;;;;;;;4908513;29;20404;-81
2023/07/05 05:51:15;;;;;;;5.93;3.22;;;;;;;;;;4913482;29;20063;-80
2023/07/05 05:53:41;;;;;;;7.90;3.50;;;;;;;;;;4907830;29;20391;-83
2023/07/05 05:56:06;;;;;;;10.60;5.15;;;;;;;;;;4907900;29;20556;-81
2023/07/05 05:58:32;;;;;;;8.68;3.90;;;;;;;;;;4926338;29;20042;-82
2023/07/05 06:01:00;;;;;;;9.73;3.75;;;;;;;;;;4941677;28;20043;-82
2023/07/05 06:03:26;;;;;;;9.07;3.40;;;;;;;;;;4928490;29;20031;-82
2023/07/05 06:05:54;;;;;;;7.28;3.58;;;;;;;;;;4909579;29;22768;-82
2023/07/05 06:08:19;;;;;;;;;;;;;;;;;;4914078;29;20047;-82
2023/07/05 06:10:46;;;;;;;10.73;4.13;;;;;;;;;;4901235;29;20379;-82
2023/07/05 06:13:12;;;;;;;10.40;3.80;;;;;;;;;;4932972;29;20043;-83
2023/07/05 06:15:38;;;;;;;9.43;4.10;;;;;;;;;;4920084;29;20594;-83
2023/07/05 06:18:03;;;;;;;8.27;3.75;;;;;;;;;;4929565;29;20040;-82
2023/07/05 06:20:33;;;;;;;13.40;4.35;;;;;;;;;;4903972;29;20376;-82
2023/07/05 06:23:00;;;;;;;9.32;4.43;;;;;;;;;;4901404;29;20503;-85
2023/07/05 06:25:31;;;;;;;8.70;4.23;;;;;;;;;;4930838;29;20035;-82
2023/07/05 06:27:57;;;;;;;8.73;4.30;;;;;;;;;;4923663;29;20390;-83
2023/07/05 06:30:22;;;;;;;10.15;5.38;;;;;;;;;;4912703;29;20043;-82
2023/07/05 06:32:47;;;;;;;10.70;4.80;;;;;;;;;;4913668;29;20040;-82
2023/07/05 06:35:13;;;;;;;7.97;4.40;;;;;;;;;;4928809;29;20781;-82
2023/07/05 06:37:38;;;;;;;8.80;4.60;;;;;;;;;;4916292;29;20436;-82
2023/07/05 06:40:04;;;;;;;8.40;4.20;;;;;;;;;;4914740;29;20044;-82
2023/07/05 06:42:30;;;;;;;8.90;4.65;;;;;;;;;;4944517;29;20039;-82
2023/07/05 06:44:58;;;;;;;7.88;4.60;;;;;;;;;;4903794;29;20040;-81
2023/07/05 06:47:24;;;;;;;8.77;4.72;;;;;;;;;;4928809;29;20063;-82
2023/07/05 06:49:49;;;;;;;15.55;7.43;;;;;;;;;;4913415;29;20079;-82
2023/07/05 06:52:15;;;;;;;8.95;4.38;;;;;;;;;;4912238;29;20063;-81
2023/07/05 06:54:41;;;;;;;7.50;4.90;;;;;;;;;;4929087;29;20032;-83
2023/07/05 06:57:07;;;;;;;9.15;5.10;;;;;;;;;;4944174;29;20555;-82
2023/07/05 06:59:35;;;;;;;9.70;5.28;;;;;;;;;;4944612;29;20039;-83
2023/07/05 07:02:01;;;;;;;11.85;5.50;;;;;;;;;;4928950;28;20028;-82
2023/07/05 07:04:29;;;;;;;7.88;5.03;;;;;;;;;;4927308;29;20472;-82
2023/07/05 07:06:55;;;;;;;9.45;5.25;;;;;;;;;;4911802;29;20055;-82
2023/07/05 07:09:20;;;;;;;8.77;5.20;;;;;;;;;;4928656;29;20181;-81
2023/07/05 07:11:45;;;;;;;11.07;6.25;;;;;;;;;;4912678;29;20038;-82
2023/07/05 07:14:11;;;;;;;9.68;5.85;;;;;;;;;;4904358;29;20119;-82
2023/07/05 07:16:36;;;;;;;12.20;5.68;;;;;;;;;;4917058;29;20114;-82
2023/07/05 07:19:02;;;;;;;9.98;5.93;;;;;;;;;;4913697;29;20046;-82
2023/07/05 07:21:27;;;;;;;14.23;6.20;;;;;;;;;;4905727;29;20036;-80
2023/07/05 07:23:52;;;;;;;11.40;5.85;;;;;;;;;;4928405;29;20722;-81
2023/07/05 07:26:20;;;;;;;11.35;5.85;;;;;;;;;;4911482;29;20125;-81
2023/07/05 07:28:50;;;;;;;;;;;;;;;;;;4906408;29;20426;-81
2023/07/05 07:31:16;;;;;;;10.35;6.45;;;;;;;;;;4918830;29;20686;-83
2023/07/05 07:33:43;;;;;;;12.73;6.70;;;;;;;;;;4928816;29;20285;-84
2023/07/05 07:36:17;;;;;;;11.60;6.65;;;;;;;;;;4926315;29;20090;-82
2023/07/05 07:38:43;;;;;;;10.73;7.03;;;;;;;;;;4927708;29;20032;-82
2023/07/05 07:41:18;;;;;;;10.77;6.80;;;;;;;;;;4918205;29;20054;-83
2023/07/05 07:43:44;;;;;;;11.57;7.55;;;;;;;;;;4912009;29;20523;-83
2023/07/05 07:46:11;;;;;;;14.30;7.35;;;;;;;;;;4927298;29;20054;-83
2023/07/05 07:48:39;;;;;;;12.20;8.00;;;;;;;;;;4901208;29;20090;-83
2023/07/05 07:51:05;;;;;;;13.73;7.75;;;;;;;;;;4924372;29;20496;-83
2023/07/05 07:53:30;;;;;;;13.52;8.75;;;;;;;;;;4928508;29;20063;-85
2023/07/05 07:55:59;;;;;;;14.35;8.27;;;;;;;;;;4927075;29;20490;-83
2023/07/05 07:58:24;;;;;;;13.80;8.30;;;;;;;;;;4900696;29;20144;-83
2023/07/05 08:00:50;;;;;;;11.95;7.95;;;;;;;;;;4911004;29;20118;-84
2023/07/05 08:03:16;;;;;;;12.23;7.88;;;;;;;;;;4911549;29;20706;-82
2023/07/05 08:05:41;;;;;;;12.98;8.57;;;;;;;;;;4914563;29;20058;-83
2023/07/05 08:08:06;;;;;;;14.55;7.82;;;;;;;;;;4910316;29;20042;-84
2023/07/05 08:10:32;;;;;;;13.90;8.43;;;;;;;;;;4927498;29;20063;-82
2023/07/05 08:12:57;;;;;;;14.00;8.68;;;;;;;;;;4926720;29;20032;-83
2023/07/05 08:15:31;;;;;;;13.60;8.27;;;;;;;;;;4942453;29;20094;-82
2023/07/05 08:17:57;;;;;;;13.00;8.57;;;;;;;;;;4911378;29;20028;-83
2023/07/05 08:20:22;;;;;;;13.90;8.63;;;;;;;;;;4943259;29;20444;-82
2023/07/05 08:22:47;;;;;;;13.57;8.23;;;;;;;;;;4896578;29;20063;-83
2023/07/05 08:25:13;;;;;;;13.55;8.55;;;;;;;;;;4919280;29;20040;-83
2023/07/05 08:27:38;;;;;;;12.90;8.95;;;;;;;;;;4927063;29;20091;-82
2023/07/05 08:30:04;;;;;;;15.30;9.43;;;;;;;;;;4910555;29;20039;-82
2023/07/05 08:32:32;;;;;;;13.63;8.88;;;;;;;;;;4943270;29;20110;-82
2023/07/05 08:34:58;;;;;;;12.60;8.30;;;;;;;;;;4912693;29;20036;-82
2023/07/05 08:37:23;;;;;;;16.65;8.85;;;;;;;;;;4915267;29;20039;-83
2023/07/05 08:39:48;;;;;;;14.20;8.48;;;;;;;;;;4917877;29;20039;-82
2023/07/05 08:42:27;;;;;;;11.00;7.80;;;;;;;;;;4910872;29;20043;-82
2023/07/05 08:45:00;;;;;;;11.52;7.18;;;;;;;;;;4927843;29;20055;-82
2023/07/05 08:47:33;;;;;;;10.75;7.85;;;;;;;;;;4902334;29;20123;-83
2023/07/05 08:50:06;;;;;;;10.18;6.88;;;;;;;;;;4910968;29;20876;-82
2023/07/05 08:52:36;;;;;;;10.95;7.00;;;;;;;;;;4926982;29;20039;-82
2023/07/05 08:55:04;;;;;;;12.70;6.68;;;;;;;;;;4904845;29;20058;-83
2023/07/05 08:57:39;;;;;;;14.38;7.13;;;;;;;;;;4911147;29;20511;-82
2023/07/05 09:00:11;;;;;;;9.93;6.93;;;;;;;;;;4899830;29;20044;-82
2023/07/05 09:02:37;;;;;;;9.90;6.68;;;;;;;;;;4926975;29;20034;-83
2023/07/05 09:05:21;;;;;;;12.00;6.65;;;;;;;;;;4944089;29;20040;-82
2023/07/05 09:08:05;;;;;;;12.55;6.78;;;;;;;;;;4910558;29;20032;-82
2023/07/05 09:10:39;;;;;;;11.45;6.63;;;;;;;;;;4925122;29;20039;-83
2023/07/05 09:13:15;;;;;;;12.30;6.95;;;;;;;;;;4911502;29;20059;-83
2023/07/05 09:16:42;;;;;;;13.20;7.15;;;;;;;;;;4925744;29;20040;-82
2023/07/05 09:19:50;;;;;;;9.98;6.53;;;;;;;;;;4872188;29;20036;-83
2023/07/05 09:22:22;;;;;;;11.18;6.63;;;;;;;;;;4869741;29;20402;-83
2023/07/05 09:24:48;;;;;;;10.90;6.18;;;;;;;;;;4918777;29;20140;-83
2023/07/05 09:27:31;;;;;;;8.52;6.00;;;;;;;;;;4927303;29;20151;-82
2023/07/05 09:30:06;;;;;;;9.50;5.90;;;;;;;;;;4919135;29;20106;-83
2023/07/05 09:32:37;;;;;;;9.60;6.20;;;;;;;;;;4924136;29;20445;-83
2023/07/05 09:35:03;;;;;;;10.75;6.38;;;;;;;;;;4904219;29;20523;-83
2023/07/05 09:37:33;;;;;;;10.18;5.95;;;;;;;;;;4929483;29;20036;-83
2023/07/05 09:40:17;;;;;;;12.68;6.55;;;;;;;;;;4920136;29;20547;-83
2023/07/05 09:43:03;;;;;;;11.73;5.97;;;;;;;;;;4946323;29;20038;-83
2023/07/05 09:45:28;;;;;;;11.10;6.10;;;;;;;;;;4929345;29;20484;-83
2023/07/05 09:48:00;;;;;;;10.98;5.70;;;;;;;;;;4915549;29;20035;-84
2023/07/05 09:50:26;;;;;;;9.85;5.60;;;;;;;;;;4945232;29;20695;-82
2023/07/05 09:52:56;;;;;;;11.10;5.53;;;;;;;;;;4930867;29;20044;-82
2023/07/05 09:55:26;;;;;;;8.15;5.40;;;;;;;;;;4920926;29;20439;-83
2023/07/05 09:57:52;;;;;;;10.90;5.75;;;;;;;;;;4946487;29;20035;-82
2023/07/05 10:00:25;;;;;;;9.13;5.22;;;;;;;;;;4928427;29;20043;-83
2023/07/05 10:02:58;;;;;;;9.00;5.28;;;;;;;;;;4922439;28;20027;-83
2023/07/05 10:05:26;;;;;;;8.05;4.85;;;;;;;;;;4913684;29;20051;-83
2023/07/05 10:07:57;;;;;;;8.60;5.32;;;;;;;;;;4908525;29;20396;-84
2023/07/05 10:10:35;;;;;;;7.82;4.45;;;;;;;;;;4913928;29;20505;-83
2023/07/05 10:13:12;;;;;;;10.13;5.60;;;;;;;;;;4896952;29;20039;-84
2023/07/05 10:15:43;;;;;;;7.80;4.88;;;;;;;;;;4927508;29;20476;-83
2023/07/05 10:18:24;;;;;;;7.40;4.60;;;;;;;;;;4922253;29;20489;-84
2023/07/05 10:20:50;;;;;;;9.23;4.35;;;;;;;;;;4912665;29;20044;-83
2023/07/05 10:23:18;;;;;;;6.63;4.25;;;;;;;;;;4930865;29;20040;-84
2023/07/05 10:25:46;;;;;;;6.22;3.90;;;;;;;;;;4903810;29;20067;-83
2023/07/05 10:28:26;;;;;;;7.40;4.00;;;;;;;;;;4912752;29;20106;-84
2023/07/05 10:31:01;;;;;;;6.65;3.45;;;;;;;;;;4906658;29;20028;-83
2023/07/05 10:33:31;;;;;;;7.18;3.40;;;;;;;;;;4904874;29;20087;-83
2023/07/05 10:36:11;;;;;;;5.72;3.08;;;;;;;;;;4912581;29;20040;-83
2023/07/05 10:38:39;;;;;;;5.95;3.33;;;;;;;;;;4929498;28;20464;-82
2023/07/05 10:41:20;;;;;;;6.75;3.30;;;;;;;;;;4909738;28;20043;-83
2023/07/05 10:43:55;;;;;;;5.55;3.30;;;;;;;;;;4942459;29;20473;-83
2023/07/05 10:46:26;;;;;;;5.80;2.88;;;;;;;;;;4912296;29;20484;-84
2023/07/05 10:48:52;;;;;;;5.68;3.17;;;;;;;;;;4925880;28;20567;-84
2023/07/05 10:51:23;;;;;;;5.97;3.20;;;;;;;;;;4920025;29;20039;-84
2023/07/05 10:54:01;;;;;;;5.93;3.33;;;;;;;;;;4928682;29;20050;-84
2023/07/05 10:56:31;;;;;;;6.85;2.65;;;;;;;;;;4928717;29;20046;-82
2023/07/05 10:59:29;;;;;;;4.68;2.65;;;;;;;;;;4943877;29;20463;-83
2023/07/05 11:01:58;;;;;;;6.13;2.75;;;;;;;;;;4915664;29;20056;-84
2023/07/05 11:04:28;;;;;;;6.43;2.70;;;;;;;;;;4894715;29;20039;-84
2023/07/05 11:07:07;;;;;;;6.18;3.25;;;;;;;;;;4927771;29;20087;-85
2023/07/05 11:09:35;;;;;;;5.80;2.83;;;;;;;;;;4928847;29;20040;-83
2023/07/05 11:12:04;;;;;;;5.93;2.92;;;;;;;;;;4928900;29;20088;-82
2023/07/05 11:14:30;;;;;;;5.80;2.58;;;;;;;;;;4914000;29;20166;-83
2023/07/05 11:16:56;;;;;;;5.20;2.35;;;;;;;;;;4895557;28;20119;-83
2023/07/05 11:19:32;;;;;;;5.70;2.50;;;;;;;;;;4910879;29;20586;-83
2023/07/05 11:22:01;;;;;;;4.28;2.10;;;;;;;;;;4901099;29;20420;-83
2023/07/05 11:24:32;;;;;;;7.22;2.45;;;;;;;;;;4930820;29;20028;-83
2023/07/05 11:26:58;;;;;;;5.35;2.38;;;;;;;;;;4921203;29;20062;-84
2023/07/05 11:29:26;;;;;;;4.97;2.03;;;;;;;;;;4928175;29;20047;-84
2023/07/05 11:31:52;;;;;;;4.65;2.20;;;;;;;;;;4927227;29;20142;-84
2023/07/05 11:34:20;;;;;;;3.70;2.08;;;;;;;;;;4921322;29;20127;-84
2023/07/05 11:36:46;;;;;;;5.75;2.25;;;;;;;;;;4935277;28;20035;-84
2023/07/05 11:39:30;;;;;;;6.10;2.10;;;;;;;;;;4931396;29;20484;-82
2023/07/05 11:41:56;;;;;;;7.03;2.20;;;;;;;;;;4917954;29;20058;-84
2023/07/05 11:44:29;;;;;;;4.25;2.10;;;;;;;;;;4912437;29;20071;-84
2023/07/05 11:46:55;;;;;;;4.75;2.08;;;;;;;;;;4927079;29;20531;-84
2023/07/05 11:49:20;;;;;;;3.83;1.80;;;;;;;;;;4926277;29;20035;-85
2023/07/05 11:51:48;;;;;;;4.65;1.83;;;;;;;;;;4943118;29;20039;-83
2023/07/05 11:54:18;;;;;;;5.32;1.83;;;;;;;;;;4927120;29;20036;-83
2023/07/05 11:56:44;;;;;;;4.72;1.80;;;;;;;;;;4919577;29;20476;-83
2023/07/05 11:59:12;;;;;;;3.45;1.77;;;;;;;;;;4903717;29;20046;-82
2023/07/05 12:01:38;;;;;;;5.40;1.80;;;;;;;;;;4898552;29;20047;-82
2023/07/05 12:04:06;;;;;;;4.53;1.55;;;;;;;;;;4917970;29;20039;-82
2023/07/05 12:06:41;;;;;;;4.38;1.70;;;;;;;;;;4905868;29;20034;-84
2023/07/05 12:09:20;;;;;;;5.15;1.60;;;;;;;;;;4911761;29;20114;-83
2023/07/05 12:11:54;;;;;;;3.67;1.50;;;;;;;;;;4902132;29;20100;-84
2023/07/05 12:14:20;;;;;;;3.92;1.83;;;;;;;;;;4910749;29;20043;-86
2023/07/05 12:16:46;;;;;;;4.32;1.58;;;;;;;;;;4911097;29;20039;-84
2023/07/05 12:19:24;;;;;;;3.13;1.50;;;;;;;;;;4912698;29;20117;-82
2023/07/05 12:22:06;;;;;;;3.35;1.30;;;;;;;;;;4926314;29;20106;-85
2023/07/05 12:24:43;;;;;;;3.25;1.33;;;;;;;;;;4911150;29;20036;-84
2023/07/05 12:27:27;;;;;;;3.50;1.30;;;;;;;;;;4911043;29;20039;-84
2023/07/05 12:29:55;;;;;;;5.40;1.63;;;;;;;;;;4940952;28;20122;-85
2023/07/05 12:32:25;;;;;;;3.40;1.40;;;;;;;;;;4906943;29;20059;-85
2023/07/05 12:35:09;;;;;;;3.55;1.50;;;;;;;;;;4911136;29;20035;-83
2023/07/05 12:37:34;;;;;;;3.45;1.30;;;;;;;;;;4942440;29;20074;-84
2023/07/05 12:40:19;;;;;;;6.70;1.20;;;;;;;;;;4912505;29;20051;-84
2023/07/05 12:42:56;;;;;;;3.85;1.30;;;;;;;;;;4926207;29;20048;-84
2023/07/05 12:45:36;;;;;;;3.57;1.40;;;;;;;;;;4927152;29;20039;-84
2023/07/05 12:48:25;;;;;;;4.50;1.40;;;;;;;;;;4925779;29;20334;-84
2023/07/05 12:51:14;;;;;;;5.28;1.50;;;;;;;;;;4941440;29;20099;-85
2023/07/05 12:53:39;;;;;;;5.50;1.60;;;;;;;;;;4926106;29;20474;-82
2023/07/05 12:56:10;;;;;;;2.60;1.00;;;;;;;;;;4911803;29;20116;-82
2023/07/05 12:58:38;;;;;;;4.10;1.17;;;;;;;;;;4926991;29;20054;-82
2023/07/05 13:01:04;;;;;;;3.03;1.20;;;;;;;;;;4910882;29;20043;-82
2023/07/05 13:03:31;;;;;;;3.58;1.13;;;;;;;;;;4899947;29;20157;-83
2023/07/05 13:05:57;;;;;;;2.97;1.15;;;;;;;;;;4940703;29;20511;-83
2023/07/05 13:08:24;;;;;;;3.97;0.90;;;;;;;;;;4911134;29;20480;-85
2023/07/05 13:10:51;;;;;;;2.95;1.10;;;;;;;;;;4901058;29;20531;-82
2023/07/05 13:13:34;;;;;;;4.70;1.13;;;;;;;;;;4908144;29;20123;-82
2023/07/05 13:16:27;;;;;;;3.70;1.45;;;;;;;;;;4902699;29;20690;-83
2023/07/05 13:19:09;;;;;;;3.67;0.88;;;;;;;;;;4912340;29;20039;-85
2023/07/05 13:21:37;;;;;;;3.15;1.13;;;;;;;;;;4928929;29;20488;-83
2023/07/05 13:24:02;;;;;;;4.78;1.10;;;;;;;;;;4930081;29;20488;-82
2023/07/05 13:26:30;;;;;;;3.65;1.50;;;;;;;;;;4914047;29;20039;-81
2023/07/05 13:28:58;;;;;;;3.72;1.80;;;;;;;;;;4930810;29;20114;-81
2023/07/05 13:31:24;;;;;;;4.70;2.03;;;;;;;;;;4912890;29;20062;-81
2023/07/05 13:33:56;;;;;;;4.78;1.83;;;;;;;;;;4932402;29;20098;-81
2023/07/05 13:36:25;;;;;;;4.20;1.75;;;;;;;;;;4945574;29;20051;-80
2023/07/05 13:38:51;;;;;;;3.40;1.63;;;;;;;;;;4928944;29;20045;-80
2023/07/05 13:41:29;;;;;;;4.55;1.77;;;;;;;;;;4907634;29;20047;-81
2023/07/05 13:43:55;;;;;;;4.90;1.92;;;;;;;;;;4913926;29;20036;-80
2023/07/05 13:46:21;;;;;;;5.65;2.20;;;;;;;;;;4924808;29;20043;-81
2023/07/05 13:48:48;;;;;;;3.88;1.98;;;;;;;;;;4946599;29;20468;-80
2023/07/05 13:51:28;;;;;;;4.70;1.70;;;;;;;;;;4902717;29;20615;-80
2023/07/05 13:53:55;;;;;;;4.10;1.67;;;;;;;;;;4929992;29;20047;-81
2023/07/05 13:56:21;;;;;;;3.95;2.00;;;;;;;;;;4943761;29;20429;-82
2023/07/05 13:58:47;;;;;;;4.27;1.60;;;;;;;;;;4914888;29;20488;-82
2023/07/05 14:01:16;;;;;;;3.80;1.80;;;;;;;;;;4921109;29;20035;-82
2023/07/05 14:03:43;;;;;;;5.13;2.03;;;;;;;;;;4912787;29;20048;-83
2023/07/05 14:06:13;;;;;;;5.07;1.67;;;;;;;;;;4929252;29;20083;-82
2023/07/05 14:08:39;;;;;;;4.72;1.80;;;;;;;;;;4929699;29;20122;-80
2023/07/05 14:11:04;;;;;;;4.47;2.17;;;;;;;;;;4912989;29;20115;-82
2023/07/05 14:13:30;;;;;;;4.15;2.00;;;;;;;;;;4931801;28;20130;-82
2023/07/05 14:15:55;;;;;;;3.50;1.85;;;;;;;;;;4927373;29;20384;-82
2023/07/05 14:18:21;;;;;;;5.32;2.38;;;;;;;;;;4914541;29;20040;-82
2023/07/05 14:20:47;;;;;;;4.18;2.20;;;;;;;;;;4901634;29;20035;-82
2023/07/05 14:23:15;;;;;;;4.50;2.05;;;;;;;;;;4919571;28;20133;-83
2023/07/05 14:25:44;;;;;;;;;;;;;;;;;;4893897;29;20099;-83
2023/07/05 14:28:13;;;;;;;3.53;2.00;;;;;;;;;;4906468;29;19918;-82
2023/07/05 14:30:59;;;;;;;4.40;2.20;;;;;;;;;;4913001;29;20042;-82
2023/07/05 14:33:28;;;;;;;6.97;1.88;;;;;;;;;;4875115;29;20041;-81
2023/07/05 14:35:54;;;;;;;3.50;1.85;;;;;;;;;;4846456;29;20513;-83
2023/07/05 14:38:19;;;;;;;6.50;2.00;;;;;;;;;;4880323;29;20089;-82
2023/07/05 14:40:47;;;;;;;4.88;1.65;;;;;;;;;;4849177;29;20036;-83
2023/07/05 14:43:13;;;;;;;5.80;2.00;;;;;;;;;;4875388;29;20056;-82
2023/07/05 14:45:43;;;;;;;4.28;1.60;;;;;;;;;;4861907;29;20186;-81
2023/07/05 14:48:10;;;;;;;5.43;1.92;;;;;;;;;;4871590;29;20049;-81
2023/07/05 14:50:36;;;;;;;4.53;1.80;;;;;;;;;;4858554;29;20497;-81
2023/07/05 14:53:04;;;;;;;4.03;1.88;;;;;;;;;;4873518;29;20296;-81
2023/07/05 14:55:30;;;;;;;4.93;1.50;;;;;;;;;;4867804;29;20029;-82